createdAt,value
2022-12-23T00:00:45.391Z,99267.84
2022-12-23T00:03:12.717Z,99261.03
2022-12-23T00:05:40.850Z,99260.19
2022-12-23T00:08:08.636Z,99259.31
2022-12-23T00:10:39.898Z,99266.16
2022-12-23T00:13:26.354Z,99266.19
2022-12-23T00:16:08.484Z,99272.16
2022-12-23T00:18:35.860Z,99279.03
2022-12-23T00:21:09.330Z,99267.94
2022-12-23T00:23:39.945Z,99271.34
2022-12-23T00:26:07.925Z,99268.78
2022-12-23T00:28:35.007Z,99267.06
2022-12-23T00:31:07.329Z,99275.63
2022-12-23T00:33:43.184Z,99279.91
2022-12-23T00:36:16.850Z,99282.44
2022-12-23T00:39:02.565Z,99285.84
2022-12-23T00:41:49.059Z,99278.19
2022-12-23T00:44:16.197Z,99283.31
2022-12-23T00:46:43.402Z,99260.28
2022-12-23T00:49:31.789Z,99285.03
2022-12-23T00:51:59.291Z,99278.19
2022-12-23T00:54:26.687Z,99268.78
2022-12-23T00:56:54.218Z,99271.34
2022-12-23T00:59:21.419Z,99279.06
2022-12-23T01:02:07.127Z,99278.19
2022-12-23T01:04:53.067Z,99254.28
2022-12-23T01:07:21.103Z,99270.50
2022-12-23T01:09:48.315Z,99268.78
2022-12-23T01:12:15.459Z,99263.69
2022-12-23T01:14:42.536Z,99256.00
2022-12-23T01:17:09.840Z,99259.41
2022-12-23T01:19:37.127Z,99223.59
2022-12-23T01:22:04.297Z,99256.00
2022-12-23T01:24:32.474Z,99254.28
2022-12-23T01:26:59.990Z,99266.25
2022-12-23T01:29:27.807Z,99263.69
2022-12-23T01:31:54.971Z,99264.53
2022-12-23T01:34:22.071Z,99267.09
2022-12-23T01:36:49.122Z,99267.13
2022-12-23T01:39:16.217Z,99273.06
2022-12-23T01:42:02.181Z,99271.38
2022-12-23T01:44:54.003Z,99267.97
2022-12-23T01:47:30.343Z,99267.13
2022-12-23T01:50:06.066Z,99259.41
2022-12-23T01:52:38.987Z,99261.13
2022-12-23T01:55:06.788Z,99262.81
2022-12-23T01:57:36.918Z,99258.56
2022-12-23T02:00:25.372Z,99258.56
2022-12-23T02:03:11.152Z,99256.84
2022-12-23T02:05:38.750Z,99261.13
2022-12-23T02:08:25.048Z,99259.41
2022-12-23T02:11:10.849Z,99267.94
2022-12-23T02:14:27.178Z,99273.06
2022-12-23T02:17:06.133Z,99271.38
2022-12-23T02:19:33.187Z,99264.53
2022-12-23T02:23:02.062Z,99264.53
2022-12-23T02:25:38.178Z,99259.41
2022-12-23T02:28:23.320Z,99262.84
2022-12-23T02:31:02.187Z,99254.31
2022-12-23T02:34:02.233Z,99245.78
2022-12-23T02:36:39.219Z,99247.50
2022-12-23T02:39:14.828Z,99249.19
2022-12-23T02:41:48.001Z,99249.19
2022-12-23T02:44:23.713Z,99251.75
2022-12-23T02:46:57.330Z,99256.03
2022-12-23T02:49:30.978Z,99215.94
2022-12-23T02:52:03.850Z,99249.22
2022-12-23T02:54:35.444Z,99238.13
2022-12-23T02:57:06.378Z,99250.91
2022-12-23T02:59:45.856Z,99247.50
2022-12-23T03:02:13.010Z,99253.47
2022-12-23T03:04:42.470Z,99244.94
2022-12-23T03:07:31.610Z,99247.50
2022-12-23T03:10:13.762Z,99247.50
2022-12-23T03:13:02.126Z,99235.56
2022-12-23T03:15:47.646Z,99232.13
2022-12-23T03:18:39.685Z,99236.41
2022-12-23T03:21:13.223Z,99240.66
2022-12-23T03:23:55.512Z,99248.34
2022-12-23T03:26:31.247Z,99248.34
2022-12-23T03:29:09.776Z,99247.50
2022-12-23T03:31:38.322Z,99227.88
2022-12-23T03:34:24.521Z,99240.66
2022-12-23T03:36:56.320Z,99245.78
2022-12-23T03:39:30.057Z,99255.16
2022-12-23T03:42:02.341Z,99245.78
2022-12-23T03:44:35.252Z,99245.78
2022-12-23T03:47:08.249Z,99237.25
2022-12-23T03:49:41.966Z,99234.69
2022-12-23T03:52:20.885Z,99229.59
2022-12-23T03:54:58.164Z,99229.56
2022-12-23T03:57:48.958Z,99214.22
2022-12-23T04:00:16.185Z,99219.34
2022-12-23T04:03:00.285Z,99230.41
2022-12-23T04:05:35.308Z,99225.31
2022-12-23T04:08:05.157Z,99219.34
2022-12-23T04:10:32.442Z,99222.78
2022-12-23T04:12:59.818Z,99222.75
2022-12-23T04:15:28.111Z,99222.75
2022-12-23T04:17:57.992Z,99221.91
2022-12-23T04:20:25.666Z,99226.16
2022-12-23T04:22:52.713Z,99215.94
2022-12-23T04:25:19.835Z,99226.19
2022-12-23T04:27:46.949Z,99220.19
2022-12-23T04:30:14.359Z,99225.28
2022-12-23T04:32:42.657Z,99216.78
2022-12-23T04:35:10.574Z,99220.19
2022-12-23T04:37:38.489Z,99230.44
2022-12-23T04:40:06.362Z,99225.31
2022-12-23T04:42:33.476Z,99225.31
2022-12-23T04:45:00.589Z,99228.72
2022-12-23T04:47:27.973Z,99221.88
2022-12-23T04:49:54.972Z,99213.38
2022-12-23T04:52:22.306Z,99225.28
2022-12-23T04:54:49.406Z,99215.06
2022-12-23T04:57:16.602Z,99209.91
2022-12-23T04:59:43.685Z,99211.66
2022-12-23T05:02:11.397Z,99216.78
2022-12-23T05:04:38.677Z,99210.78
2022-12-23T05:07:05.752Z,99220.16
2022-12-23T05:09:32.854Z,99210.75
2022-12-23T05:11:59.933Z,99219.31
2022-12-23T05:14:26.985Z,99209.94
2022-12-23T05:16:54.135Z,99208.22
2022-12-23T05:19:21.275Z,99197.97
2022-12-23T05:21:48.380Z,99209.91
2022-12-23T05:24:15.463Z,99199.66
2022-12-23T05:26:47.629Z,99209.06
2022-12-23T05:29:15.886Z,99218.44
2022-12-23T05:31:43.374Z,99205.66
2022-12-23T05:34:10.642Z,99215.88
2022-12-23T05:36:37.715Z,99221.88
2022-12-23T05:39:04.928Z,99218.44
2022-12-23T05:41:31.967Z,99215.88
2022-12-23T05:43:59.002Z,99219.28
2022-12-23T05:46:27.140Z,99221.00
2022-12-23T05:48:54.735Z,99216.72
2022-12-23T05:51:21.820Z,99226.97
2022-12-23T05:53:48.942Z,99222.69
2022-12-23T05:56:16.005Z,99225.25
2022-12-23T05:58:43.097Z,99221.88
2022-12-23T06:01:10.309Z,99225.28
2022-12-23T06:03:37.592Z,99231.22
2022-12-23T06:06:04.981Z,99232.94
2022-12-23T06:08:32.263Z,99226.94
2022-12-23T06:11:00.065Z,99240.63
2022-12-23T06:13:27.137Z,99220.97
2022-12-23T06:15:54.131Z,99211.59
2022-12-23T06:18:21.152Z,99230.38
2022-12-23T06:20:48.900Z,99218.41
2022-12-23T06:23:16.079Z,99211.56
2022-12-23T06:25:43.246Z,99221.84
2022-12-23T06:28:10.357Z,99214.16
2022-12-23T06:30:37.325Z,99216.72
2022-12-23T06:33:04.393Z,99223.53
2022-12-23T06:35:31.559Z,99225.22
2022-12-23T06:37:58.647Z,99226.94
2022-12-23T06:40:25.721Z,99231.22
2022-12-23T06:42:52.838Z,99232.06
2022-12-23T06:45:19.993Z,99234.63
2022-12-23T06:47:47.139Z,99222.66
2022-12-23T06:50:14.183Z,99227.78
2022-12-23T06:52:41.259Z,99227.78
2022-12-23T06:55:08.581Z,99238.88
2022-12-23T06:57:35.675Z,99230.34
2022-12-23T07:00:05.051Z,99219.25
2022-12-23T07:02:32.284Z,99230.34
2022-12-23T07:04:59.341Z,99226.94
2022-12-23T07:07:26.451Z,99233.75
2022-12-23T07:09:53.503Z,99239.72
2022-12-23T07:12:20.721Z,99225.22
2022-12-23T07:14:47.811Z,99240.56
2022-12-23T07:17:14.964Z,99244.00
2022-12-23T07:19:42.016Z,99233.72
2022-12-23T07:22:10.475Z,99234.59
2022-12-23T07:24:37.989Z,99235.44
2022-12-23T07:27:05.192Z,99235.44
2022-12-23T07:29:32.258Z,99238.00
2022-12-23T07:31:59.553Z,99235.44
2022-12-23T07:34:26.684Z,99220.06
2022-12-23T07:36:54.103Z,99238.84
2022-12-23T07:39:21.289Z,99233.72
2022-12-23T07:41:48.328Z,99221.75
2022-12-23T07:44:15.577Z,99230.28
2022-12-23T07:46:42.989Z,99228.59
2022-12-23T07:49:10.367Z,99228.59
2022-12-23T07:51:37.428Z,99218.34
2022-12-23T07:54:04.502Z,99216.63
2022-12-23T07:56:31.620Z,99219.19
2022-12-23T07:58:58.790Z,99213.22
2022-12-23T08:01:25.934Z,99216.63
2022-12-23T08:03:53.210Z,99212.34
2022-12-23T08:06:20.424Z,99208.94
2022-12-23T08:08:47.478Z,99221.75
2022-12-23T08:11:15.960Z,99204.69
2022-12-23T08:13:45.091Z,99211.50
2022-12-23T08:16:12.998Z,99207.25
2022-12-23T08:18:42.096Z,99196.13
2022-12-23T08:21:13.749Z,99196.13
2022-12-23T08:23:42.295Z,99192.75
2022-12-23T08:26:21.598Z,99185.91
2022-12-23T08:28:49.757Z,99182.50
2022-12-23T08:31:25.754Z,99184.22
2022-12-23T08:33:55.514Z,99185.94
2022-12-23T08:36:28.033Z,99172.28
2022-12-23T08:38:56.390Z,99187.63
2022-12-23T08:41:27.276Z,99179.13
2022-12-23T08:43:54.585Z,99178.28
2022-12-23T08:46:22.428Z,99188.50
2022-12-23T08:48:50.203Z,99187.69
2022-12-23T08:51:19.253Z,99182.56
2022-12-23T08:53:47.111Z,99191.94
2022-12-23T08:56:20.320Z,99191.09
2022-12-23T08:58:48.988Z,99191.09
2022-12-23T09:01:17.848Z,99197.94
2022-12-23T09:03:45.641Z,99197.94
2022-12-23T09:06:15.622Z,99196.22
2022-12-23T09:08:43.357Z,99194.50
2022-12-23T09:11:11.944Z,99185.97
2022-12-23T09:13:39.298Z,99182.56
2022-12-23T09:16:07.959Z,99185.97
2022-12-23T09:18:36.037Z,99180.81
2022-12-23T09:21:08.344Z,99187.66
2022-12-23T09:23:35.514Z,99182.53
2022-12-23T09:26:06.139Z,99175.72
2022-12-23T09:28:33.277Z,99173.97
2022-12-23T09:31:10.232Z,99172.28
2022-12-23T09:33:37.508Z,99169.72
2022-12-23T09:36:05.536Z,99165.47
2022-12-23T09:38:33.579Z,99170.59
2022-12-23T09:41:15.319Z,99165.47
2022-12-23T09:44:15.036Z,99160.34
2022-12-23T09:46:54.317Z,99161.19
2022-12-23T09:49:22.893Z,99153.50
2022-12-23T09:51:56.018Z,99155.19
2022-12-23T09:54:26.312Z,99146.63
2022-12-23T09:56:53.343Z,99141.50
2022-12-23T09:59:26.661Z,99141.50
2022-12-23T10:02:09.204Z,99134.69
2022-12-23T10:05:00.568Z,99134.69
2022-12-23T10:07:44.410Z,99138.09
2022-12-23T10:10:57.543Z,99138.06
2022-12-23T10:13:29.901Z,99128.69
2022-12-23T10:16:04.505Z,99121.81
2022-12-23T10:18:46.472Z,99121.81
2022-12-23T10:21:25.323Z,99122.66
2022-12-23T10:23:54.411Z,99118.38
2022-12-23T10:26:30.169Z,99114.09
2022-12-23T10:29:19.682Z,99107.25
2022-12-23T10:31:53.631Z,99117.47
2022-12-23T10:34:36.603Z,99108.91
2022-12-23T10:37:17.585Z,99117.47
2022-12-23T10:40:02.470Z,99117.47
2022-12-23T10:43:00.588Z,99111.47
2022-12-23T10:45:27.574Z,99120.88
2022-12-23T10:48:24.007Z,99124.25
2022-12-23T10:51:01.444Z,99136.25
2022-12-23T10:53:40.782Z,99132.81
2022-12-23T10:56:08.806Z,99137.09
2022-12-23T10:58:41.969Z,99135.38
2022-12-23T11:01:17.544Z,99140.47
2022-12-23T11:04:00.320Z,99134.50
2022-12-23T11:06:34.885Z,99130.22
2022-12-23T11:09:05.535Z,99135.34
2022-12-23T11:12:02.216Z,99131.97
2022-12-23T11:14:50.021Z,99137.88
2022-12-23T11:17:23.700Z,99141.31
2022-12-23T11:20:15.363Z,99134.50
2022-12-23T11:22:51.610Z,99131.06
2022-12-23T11:25:30.609Z,99142.16
2022-12-23T11:28:03.271Z,99142.16
2022-12-23T11:30:33.306Z,99139.56
2022-12-23T11:33:00.479Z,99127.63
2022-12-23T11:35:31.812Z,99131.84
2022-12-23T11:38:01.123Z,99131.00
2022-12-23T11:40:34.180Z,99129.25
2022-12-23T11:43:04.256Z,99132.69
2022-12-23T11:45:36.432Z,99134.41
2022-12-23T11:48:06.139Z,99139.50
2022-12-23T11:50:37.503Z,99137.78
2022-12-23T11:53:13.674Z,99132.66
2022-12-23T11:55:48.523Z,99129.25
2022-12-23T11:58:19.956Z,99114.72
2022-12-23T12:00:58.976Z,99124.13
2022-12-23T12:03:36.172Z,99119.00
2022-12-23T12:06:06.195Z,99117.28
2022-12-23T12:08:38.631Z,99112.16
2022-12-23T12:11:17.127Z,99099.44
2022-12-23T12:13:48.181Z,99133.53
2022-12-23T12:16:30.749Z,99147.19
2022-12-23T12:19:04.920Z,99138.59
2022-12-23T12:21:37.591Z,99137.78
2022-12-23T12:24:19.316Z,99153.13
2022-12-23T12:26:52.639Z,99144.66
2022-12-23T12:29:43.894Z,99165.13
2022-12-23T12:32:33.519Z,99157.44
2022-12-23T12:35:17.248Z,99161.69
2022-12-23T12:37:53.907Z,99161.69
2022-12-23T12:40:26.530Z,99156.56
2022-12-23T12:43:19.291Z,99158.28
2022-12-23T12:45:53.409Z,99148.00
2022-12-23T12:48:34.770Z,99153.13
2022-12-23T12:51:12.836Z,99164.19
2022-12-23T12:54:09.413Z,99186.44
2022-12-23T12:56:39.604Z,99199.28
2022-12-23T12:59:06.868Z,99200.16
2022-12-23T13:01:48.462Z,99206.13
2022-12-23T13:04:21.648Z,99212.09
2022-12-23T13:07:02.169Z,99219.81
2022-12-23T13:09:37.214Z,99219.81
2022-12-23T13:12:50.119Z,99211.28
2022-12-23T13:15:38.750Z,99195.91
2022-12-23T13:18:16.450Z,99219.81
2022-12-23T13:20:51.525Z,99212.16
2022-12-23T13:23:44.463Z,99211.31
2022-12-23T13:26:23.847Z,99201.06
2022-12-23T13:29:14.794Z,99202.75
2022-12-23T13:31:48.932Z,99206.19
2022-12-23T13:34:40.152Z,99209.59
2022-12-23T13:37:27.884Z,99203.59
2022-12-23T13:40:14.675Z,99193.38
2022-12-23T13:42:49.246Z,99207.03
2022-12-23T13:45:18.616Z,99200.19
2022-12-23T13:47:48.471Z,99194.22
2022-12-23T13:50:33.591Z,99195.06
2022-12-23T13:53:06.388Z,99197.63
2022-12-23T13:56:12.126Z,99207.03
2022-12-23T13:58:40.813Z,99225.84
2022-12-23T14:01:08.458Z,99227.56
2022-12-23T14:03:38.926Z,99225.00
2022-12-23T14:06:22.328Z,99227.56
2022-12-23T14:08:51.078Z,99231.84
2022-12-23T14:11:33.592Z,99229.31
2022-12-23T14:14:05.001Z,99226.75
2022-12-23T14:16:50.926Z,99225.03
2022-12-23T14:19:42.788Z,99223.31
2022-12-23T14:22:39.509Z,99223.31
2022-12-23T14:25:21.859Z,99223.34
2022-12-23T14:28:07.608Z,99241.28
2022-12-23T14:30:40.465Z,99242.16
2022-12-23T14:33:28.068Z,99243.03
2022-12-23T14:35:56.548Z,99242.19
2022-12-23T14:38:29.413Z,99253.28
2022-12-23T14:41:20.017Z,99247.31
2022-12-23T14:43:47.070Z,99249.03
2022-12-23T14:46:35.917Z,99247.31
2022-12-23T14:49:36.821Z,99249.03
2022-12-23T14:51:51.706Z,99245.59
2022-12-23T14:54:38.430Z,99245.63
2022-12-23T14:57:17.182Z,99253.31
2022-12-23T15:00:07.467Z,99267.81
2022-12-23T15:02:36.709Z,99274.66
2022-12-23T15:05:04.960Z,99270.41
2022-12-23T15:07:39.123Z,99279.78
2022-12-23T15:10:06.681Z,99278.94
2022-12-23T15:12:36.963Z,99274.66
2022-12-23T15:15:06.113Z,99277.28
2022-12-23T15:17:35.984Z,99290.06
2022-12-23T15:20:08.344Z,99288.38
2022-12-23T15:22:36.671Z,99283.25
2022-12-23T15:25:05.672Z,99290.91
2022-12-23T15:27:36.115Z,99288.34
2022-12-23T15:30:03.583Z,99291.78
2022-12-23T15:32:30.785Z,99302.88
2022-12-23T15:35:06.627Z,99301.16
2022-12-23T15:37:34.904Z,99292.63
2022-12-23T15:40:12.535Z,99300.28
2022-12-23T15:42:47.745Z,99301.19
2022-12-23T15:45:37.412Z,99296.91
2022-12-23T15:48:07.330Z,99299.44
2022-12-23T15:50:42.015Z,99304.59
2022-12-23T15:53:13.190Z,99308.84
2022-12-23T15:55:41.549Z,99308.00
2022-12-23T15:58:15.759Z,99311.41
2022-12-23T16:00:51.075Z,99303.72
2022-12-23T16:03:28.119Z,99302.03
2022-12-23T16:05:55.612Z,99300.31
2022-12-23T16:08:29.584Z,99284.94
2022-12-23T16:11:16.252Z,99279.81
2022-12-23T16:14:22.321Z,99279.78
2022-12-23T16:16:52.621Z,99278.13
2022-12-23T16:19:48.845Z,99284.91
2022-12-23T16:22:36.422Z,99283.22
2022-12-23T16:25:16.531Z,99277.22
2022-12-23T16:28:07.919Z,99284.91
2022-12-23T16:30:38.510Z,99284.91
2022-12-23T16:33:22.765Z,99284.91
2022-12-23T16:35:49.878Z,99291.78
2022-12-23T16:38:18.416Z,99296.91
2022-12-23T16:40:48.079Z,99307.16
2022-12-23T16:43:16.348Z,99311.41
2022-12-23T16:45:45.108Z,99308.84
2022-12-23T16:48:41.447Z,99303.72
2022-12-23T16:51:14.517Z,99296.91
2022-12-23T16:53:41.673Z,99301.19
2022-12-23T16:56:16.957Z,99284.94
2022-12-23T16:58:44.991Z,99299.47
2022-12-23T17:01:37.025Z,99300.31
2022-12-23T17:04:05.020Z,99302.88
2022-12-23T17:06:32.201Z,99308.84
2022-12-23T17:08:59.443Z,99308.84
2022-12-23T17:11:43.766Z,99312.28
2022-12-23T17:14:17.490Z,99313.13
2022-12-23T17:16:46.134Z,99303.72
2022-12-23T17:19:13.793Z,99301.16
2022-12-23T17:21:43.329Z,99313.97
2022-12-23T17:24:17.017Z,99309.72
2022-12-23T17:26:44.260Z,99304.59
2022-12-23T17:29:12.987Z,99301.19
2022-12-23T17:31:41.883Z,99267.91
2022-12-23T17:34:17.539Z,99308.00
2022-12-23T17:36:50.029Z,99310.56
2022-12-23T17:39:18.735Z,99324.22
2022-12-23T17:41:46.293Z,99325.94
2022-12-23T17:44:17.508Z,99319.13
2022-12-23T17:46:45.825Z,99329.38
2022-12-23T17:49:13.114Z,99334.47
2022-12-23T17:51:41.823Z,99339.63
2022-12-23T17:54:24.409Z,99344.75
2022-12-23T17:56:52.929Z,99334.50
2022-12-23T17:59:20.713Z,99336.19
2022-12-23T18:01:48.032Z,99325.94
2022-12-23T18:04:15.641Z,99328.53
2022-12-23T18:06:42.788Z,99337.91
2022-12-23T18:09:09.913Z,99332.78
2022-12-23T18:11:44.012Z,99333.63
2022-12-23T18:14:28.198Z,99333.63
2022-12-23T18:16:55.486Z,99337.91
2022-12-23T18:19:22.670Z,99346.44
2022-12-23T18:21:51.567Z,99343.88
2022-12-23T18:24:19.232Z,99334.50
2022-12-23T18:26:46.356Z,99346.44
2022-12-23T18:29:13.638Z,99341.31
2022-12-23T18:31:52.105Z,99343.88
2022-12-23T18:34:20.653Z,99337.06
2022-12-23T18:36:48.704Z,99336.19
2022-12-23T18:39:15.929Z,99341.31
2022-12-23T18:41:43.017Z,99334.47
2022-12-23T18:44:21.265Z,99335.34
2022-12-23T18:46:49.359Z,99329.34
2022-12-23T18:49:16.693Z,99336.19
2022-12-23T18:51:43.837Z,99337.06
2022-12-23T18:54:17.254Z,99304.59
2022-12-23T18:56:44.727Z,99325.94
2022-12-23T18:59:27.156Z,99334.50
2022-12-23T19:01:56.969Z,99333.66
2022-12-23T19:04:24.282Z,99334.50
2022-12-23T19:06:51.525Z,99331.09
2022-12-23T19:09:21.584Z,99342.19
2022-12-23T19:11:51.180Z,99340.50
2022-12-23T19:14:18.615Z,99349.03
2022-12-23T19:16:51.211Z,99344.75
2022-12-23T19:19:19.674Z,99344.75
2022-12-23T19:21:46.889Z,99339.59
2022-12-23T19:24:14.252Z,99336.19
2022-12-23T19:26:41.399Z,99334.50
2022-12-23T19:29:09.030Z,99331.06
2022-12-23T19:31:36.119Z,99326.78
2022-12-23T19:34:03.422Z,99324.25
2022-12-23T19:36:31.270Z,99327.69
2022-12-23T19:38:58.718Z,99332.81
2022-12-23T19:41:25.947Z,99329.38
2022-12-23T19:43:53.028Z,99334.50
2022-12-23T19:46:20.190Z,99332.78
2022-12-23T19:48:52.587Z,99326.78
2022-12-23T19:51:20.522Z,99325.94
2022-12-23T19:53:50.432Z,99328.50
2022-12-23T19:56:21.377Z,99321.66
2022-12-23T19:58:49.585Z,99317.41
2022-12-23T20:01:25.656Z,99316.53
2022-12-23T20:03:55.287Z,99302.06
2022-12-23T20:06:23.925Z,99318.25
2022-12-23T20:08:55.042Z,99307.19
2022-12-23T20:11:26.999Z,99317.41
2022-12-23T20:13:57.427Z,99322.53
2022-12-23T20:16:24.627Z,99320.81
2022-12-23T20:18:52.155Z,99329.38
2022-12-23T20:21:19.802Z,99336.19
2022-12-23T20:23:46.831Z,99341.31
2022-12-23T20:26:15.067Z,99343.88
2022-12-23T20:28:42.566Z,99345.59
2022-12-23T20:31:22.659Z,99344.75
2022-12-23T20:33:51.512Z,99349.88
2022-12-23T20:36:22.223Z,99348.16
2022-12-23T20:38:50.613Z,99350.72
2022-12-23T20:41:21.383Z,99353.28
2022-12-23T20:44:23.382Z,99360.97
2022-12-23T20:46:36.310Z,99357.56
2022-12-23T20:49:04.105Z,99356.69
2022-12-23T20:51:31.209Z,99357.56
2022-12-23T20:54:01.469Z,99357.56
2022-12-23T20:56:29.531Z,99356.72
2022-12-23T20:59:01.754Z,99357.56
2022-12-23T21:01:38.363Z,99355.00
2022-12-23T21:04:09.194Z,99375.50
2022-12-23T21:06:36.676Z,99363.53
2022-12-23T21:09:06.058Z,99365.25
2022-12-23T21:11:37.303Z,99355.00
2022-12-23T21:14:07.217Z,99366.97
2022-12-23T21:16:36.099Z,99371.25
2022-12-23T21:19:03.912Z,99365.25
2022-12-23T21:21:32.141Z,99366.97
2022-12-23T21:24:01.756Z,99350.75
2022-12-23T21:26:30.850Z,99363.56
2022-12-23T21:29:00.224Z,99367.84
2022-12-23T21:31:28.908Z,99360.13
2022-12-23T21:33:56.533Z,99355.00
2022-12-23T21:36:26.689Z,99359.28
2022-12-23T21:38:53.904Z,99355.88
2022-12-23T21:41:23.976Z,99361.84
2022-12-23T21:43:51.811Z,99361.84
2022-12-23T21:46:22.491Z,99366.97
2022-12-23T21:48:50.672Z,99359.28
2022-12-23T21:51:39.116Z,99348.19
2022-12-23T21:54:08.652Z,99360.16
2022-12-23T21:56:35.960Z,99355.88
2022-12-23T21:59:06.616Z,99356.72
2022-12-23T22:01:34.085Z,99343.06
2022-12-23T22:04:01.334Z,99351.59
2022-12-23T22:06:34.067Z,99355.88
2022-12-23T22:09:01.147Z,99337.09
2022-12-23T22:11:31.280Z,99339.63
2022-12-23T22:14:00.166Z,99349.91
2022-12-23T22:16:29.335Z,99339.66
2022-12-23T22:18:58.194Z,99332.81
2022-12-23T22:21:27.433Z,99327.69
2022-12-23T22:23:55.411Z,99329.41
2022-12-23T22:26:26.274Z,99336.25
2022-12-23T22:28:55.577Z,99340.50
2022-12-23T22:31:44.298Z,99334.53
2022-12-23T22:34:18.254Z,99334.53
2022-12-23T22:36:45.841Z,99332.84
2022-12-23T22:39:21.028Z,99337.97
2022-12-23T22:41:50.448Z,99329.41
2022-12-23T22:44:18.004Z,99329.41
2022-12-23T22:46:45.448Z,99339.66
2022-12-23T22:49:13.813Z,99339.66
2022-12-23T22:51:41.898Z,99332.84
2022-12-23T22:54:09.192Z,99332.84
2022-12-23T22:56:36.673Z,99339.66
2022-12-23T22:59:05.067Z,99334.53
2022-12-23T23:01:34.739Z,99334.53
2022-12-23T23:04:03.468Z,99333.69
2022-12-23T23:06:38.816Z,99336.25
2022-12-23T23:09:08.788Z,99334.53
2022-12-23T23:11:36.260Z,99337.09
2022-12-23T23:14:04.179Z,99340.53
2022-12-23T23:16:32.007Z,99339.66
2022-12-23T23:19:00.115Z,99326.84
2022-12-23T23:21:27.187Z,99295.28
2022-12-23T23:23:54.277Z,99336.22
2022-12-23T23:26:22.602Z,99331.13
2022-12-23T23:28:49.704Z,99337.09
2022-12-23T23:31:41.032Z,99331.13
2022-12-23T23:34:03.872Z,99326.00
2022-12-23T23:36:30.983Z,99343.06
2022-12-23T23:38:59.087Z,99346.50
2022-12-23T23:41:26.203Z,99336.25
2022-12-23T23:43:53.366Z,99337.09
2022-12-23T23:46:20.555Z,99334.53
2022-12-23T23:48:47.816Z,99337.94
2022-12-23T23:51:15.239Z,99333.69
2022-12-23T23:53:42.322Z,99338.78
2022-12-23T23:56:09.705Z,99334.50
2022-12-23T23:58:37.491Z,99341.38
